createdAt,value
2023-04-07T00:00:45.663Z,5.71
2023-04-07T00:02:55.166Z,5.71
2023-04-07T00:05:03.470Z,5.70
2023-04-07T00:07:07.418Z,5.60
2023-04-07T00:09:11.542Z,5.47
2023-04-07T00:11:16.762Z,5.44
2023-04-07T00:13:20.787Z,5.46
2023-04-07T00:15:27.382Z,5.48
2023-04-07T00:17:33.650Z,5.50
2023-04-07T00:19:39.875Z,5.51
2023-04-07T00:21:45.997Z,5.50
2023-04-07T00:23:49.388Z,5.48
2023-04-07T00:25:54.651Z,5.47
2023-04-07T00:27:57.855Z,5.45
2023-04-07T00:30:00.799Z,5.40
2023-04-07T00:32:03.807Z,5.34
2023-04-07T00:34:08.811Z,5.31
2023-04-07T00:36:11.647Z,5.24
2023-04-07T00:38:14.259Z,5.13
2023-04-07T00:40:17.634Z,5.03
2023-04-07T00:42:20.616Z,4.98
2023-04-07T00:44:23.238Z,4.98
2023-04-07T00:46:28.641Z,5.00
2023-04-07T00:48:33.048Z,5.02
2023-04-07T00:50:35.694Z,5.04
2023-04-07T00:52:38.577Z,5.02
2023-04-07T00:54:43.365Z,4.99
2023-04-07T00:56:46.530Z,4.99
2023-04-07T00:58:49.230Z,4.96
2023-04-07T01:01:05.117Z,4.92
2023-04-07T01:03:28.827Z,4.89
2023-04-07T01:05:46.799Z,4.85
2023-04-07T01:08:27.850Z,4.81
2023-04-07T01:10:42.802Z,4.79
2023-04-07T01:13:06.070Z,4.81
2023-04-07T01:15:37.836Z,4.76
2023-04-07T01:17:59.900Z,4.65
2023-04-07T01:20:10.254Z,4.55
2023-04-07T01:22:47.748Z,4.50
2023-04-07T01:25:18.952Z,4.52
2023-04-07T01:27:50.739Z,4.56
2023-04-07T01:30:00.340Z,4.57
2023-04-07T01:32:15.016Z,4.60
2023-04-07T01:34:21.561Z,4.63
2023-04-07T01:36:28.241Z,4.63
2023-04-07T01:38:34.066Z,4.62
2023-04-07T01:40:39.768Z,4.61
2023-04-07T01:42:53.072Z,4.61
2023-04-07T01:44:59.531Z,4.62
2023-04-07T01:47:06.063Z,4.63
2023-04-07T01:49:13.523Z,4.63
2023-04-07T01:51:19.057Z,4.62
2023-04-07T01:53:26.201Z,4.60
2023-04-07T01:55:29.904Z,4.57
2023-04-07T01:57:42.291Z,4.54
2023-04-07T01:59:52.230Z,4.51
2023-04-07T02:01:57.782Z,4.47
2023-04-07T02:04:09.222Z,4.40
2023-04-07T02:06:22.427Z,4.35
2023-04-07T02:08:30.573Z,4.27
2023-04-07T02:10:39.918Z,4.20
2023-04-07T02:12:47.306Z,4.17
2023-04-07T02:14:55.714Z,4.16
2023-04-07T02:17:03.802Z,4.13
2023-04-07T02:19:26.737Z,4.12
2023-04-07T02:21:35.211Z,4.12
2023-04-07T02:23:49.926Z,4.10
2023-04-07T02:25:58.305Z,4.10
2023-04-07T02:28:03.653Z,4.10
2023-04-07T02:30:13.940Z,4.11
2023-04-07T02:32:22.228Z,4.07
2023-04-07T02:34:28.088Z,4.05
2023-04-07T02:36:32.729Z,4.04
2023-04-07T02:38:43.872Z,4.01
2023-04-07T02:40:54.416Z,3.97
2023-04-07T02:43:02.520Z,3.94
2023-04-07T02:45:06.889Z,3.93
2023-04-07T02:47:18.873Z,3.94
2023-04-07T02:49:23.052Z,3.95
2023-04-07T02:51:27.243Z,3.92
2023-04-07T02:53:35.095Z,3.85
2023-04-07T02:55:39.910Z,3.81
2023-04-07T02:57:42.796Z,3.78
2023-04-07T02:59:52.227Z,3.76
2023-04-07T03:01:54.981Z,3.73
2023-04-07T03:03:58.257Z,3.68
2023-04-07T03:06:02.363Z,3.65
2023-04-07T03:08:08.049Z,3.63
2023-04-07T03:10:12.539Z,3.61
2023-04-07T03:12:18.881Z,3.55
2023-04-07T03:14:21.727Z,3.52
2023-04-07T03:16:26.511Z,3.48
2023-04-07T03:18:43.938Z,3.49
2023-04-07T03:20:50.220Z,3.47
2023-04-07T03:22:57.890Z,3.44
2023-04-07T03:25:06.130Z,3.43
2023-04-07T03:27:10.314Z,3.40
2023-04-07T03:29:33.810Z,3.35
2023-04-07T03:31:48.221Z,3.30
2023-04-07T03:33:52.585Z,3.23
2023-04-07T03:35:56.653Z,3.18
2023-04-07T03:38:07.574Z,3.18
2023-04-07T03:40:12.160Z,3.15
2023-04-07T03:42:18.269Z,3.12
2023-04-07T03:44:24.305Z,3.07
2023-04-07T03:46:27.515Z,3.05
2023-04-07T03:48:30.613Z,3.07
2023-04-07T03:50:42.382Z,3.07
2023-04-07T03:52:51.264Z,3.05
2023-04-07T03:55:01.755Z,3.00
2023-04-07T03:57:10.875Z,2.98
2023-04-07T03:59:23.112Z,2.98
2023-04-07T04:01:45.092Z,2.96
2023-04-07T04:03:54.408Z,2.90
2023-04-07T04:06:10.995Z,2.90
2023-04-07T04:08:32.464Z,2.90
2023-04-07T04:10:36.675Z,2.91
2023-04-07T04:12:41.457Z,2.89
2023-04-07T04:14:49.836Z,2.86
2023-04-07T04:16:58.306Z,2.82
2023-04-07T04:19:08.934Z,2.81
2023-04-07T04:21:14.322Z,2.80
2023-04-07T04:23:33.678Z,2.81
2023-04-07T04:25:43.046Z,2.82
2023-04-07T04:27:47.543Z,2.82
2023-04-07T04:29:54.106Z,2.81
2023-04-07T04:32:07.547Z,2.79
2023-04-07T04:34:11.768Z,2.78
2023-04-07T04:36:25.200Z,2.79
2023-04-07T04:38:36.142Z,2.78
2023-04-07T04:40:49.877Z,2.75
2023-04-07T04:43:04.069Z,2.73
2023-04-07T04:45:26.467Z,2.71
2023-04-07T04:47:30.568Z,2.68
2023-04-07T04:49:33.349Z,2.67
2023-04-07T04:51:40.725Z,2.65
2023-04-07T04:54:23.889Z,2.61
2023-04-07T04:56:31.221Z,2.55
2023-04-07T04:58:38.297Z,2.53
2023-04-07T05:00:41.904Z,2.53
2023-04-07T05:02:46.914Z,2.53
2023-04-07T05:04:53.158Z,2.57
2023-04-07T05:07:14.659Z,2.63
2023-04-07T05:09:19.228Z,2.68
2023-04-07T05:11:24.824Z,2.75
2023-04-07T05:13:31.112Z,2.80
2023-04-07T05:15:35.789Z,2.82
2023-04-07T05:17:39.270Z,2.82
2023-04-07T05:19:46.343Z,2.83
2023-04-07T05:22:00.837Z,2.83
2023-04-07T05:24:05.948Z,2.82
2023-04-07T05:26:13.451Z,2.85
2023-04-07T05:28:39.743Z,2.86
2023-04-07T05:31:02.199Z,2.83
2023-04-07T05:33:10.011Z,2.82
2023-04-07T05:35:24.088Z,2.77
2023-04-07T05:37:32.682Z,2.69
2023-04-07T05:42:14.855Z,2.75
2023-04-07T05:44:28.952Z,2.80
2023-04-07T05:46:40.068Z,2.87
2023-04-07T05:48:43.225Z,2.93
2023-04-07T05:50:54.609Z,2.98
2023-04-07T05:53:01.095Z,3.01
2023-04-07T05:55:08.348Z,3.04
2023-04-07T05:57:11.666Z,3.08
2023-04-07T05:59:21.626Z,3.09
2023-04-07T06:01:32.846Z,3.11
2023-04-07T06:03:41.534Z,3.12
2023-04-07T06:06:00.610Z,3.15
2023-04-07T06:08:10.834Z,3.18
2023-04-07T06:10:17.923Z,3.19
2023-04-07T06:12:22.180Z,3.16
2023-04-07T06:14:27.136Z,3.15
2023-04-07T06:16:35.103Z,3.22
2023-04-07T06:18:46.401Z,3.28
2023-04-07T06:20:55.132Z,3.33
2023-04-07T06:23:00.435Z,3.39
2023-04-07T06:25:05.203Z,3.45
2023-04-07T06:27:08.867Z,3.47
2023-04-07T06:29:11.665Z,3.50
2023-04-07T06:31:17.378Z,3.54
2023-04-07T06:33:37.498Z,3.54
2023-04-07T06:35:45.197Z,3.60
2023-04-07T06:37:50.855Z,3.61
2023-04-07T06:39:55.869Z,3.62
2023-04-07T06:42:03.008Z,3.62
2023-04-07T06:44:13.984Z,3.66
2023-04-07T06:46:20.478Z,3.64
2023-04-07T06:48:39.102Z,3.63
2023-04-07T06:50:43.465Z,3.63
2023-04-07T06:52:48.632Z,3.59
2023-04-07T06:54:56.753Z,3.59
2023-04-07T06:57:00.009Z,3.62
2023-04-07T06:59:04.646Z,3.67
2023-04-07T07:01:07.818Z,3.73
2023-04-07T07:03:32.420Z,3.80
2023-04-07T07:05:36.308Z,3.88
2023-04-07T07:07:40.711Z,3.94
2023-04-07T07:09:43.835Z,4.01
2023-04-07T07:11:46.652Z,4.07
2023-04-07T07:13:50.120Z,4.09
2023-04-07T07:15:56.277Z,4.10
2023-04-07T07:18:00.102Z,4.13
2023-04-07T07:20:03.391Z,4.17
2023-04-07T07:22:07.367Z,4.25
2023-04-07T07:24:10.642Z,4.33
2023-04-07T07:26:13.659Z,4.38
2023-04-07T07:28:16.761Z,4.45
2023-04-07T07:30:49.451Z,4.52
2023-04-07T07:32:56.217Z,4.60
2023-04-07T07:34:59.172Z,4.67
2023-04-07T07:37:11.051Z,4.72
2023-04-07T07:39:14.607Z,4.77
2023-04-07T07:41:17.973Z,4.82
2023-04-07T07:43:31.500Z,4.86
2023-04-07T07:45:34.780Z,4.90
2023-04-07T07:47:43.108Z,4.92
2023-04-07T07:49:50.780Z,4.95
2023-04-07T07:51:58.562Z,4.99
2023-04-07T07:54:01.637Z,5.05
2023-04-07T07:56:06.035Z,5.08
2023-04-07T07:58:36.166Z,5.13
2023-04-07T08:00:41.863Z,5.22
2023-04-07T08:02:49.513Z,5.31
2023-04-07T08:04:54.788Z,5.37
2023-04-07T08:07:00.872Z,5.44
2023-04-07T08:09:04.984Z,5.48
2023-04-07T08:13:34.246Z,5.61
2023-04-07T08:15:39.051Z,5.67
2023-04-07T08:17:43.125Z,5.72
2023-04-07T08:19:46.831Z,5.75
2023-04-07T08:21:50.620Z,5.80
2023-04-07T08:23:57.128Z,5.90
2023-04-07T08:26:00.330Z,5.98
2023-04-07T08:28:04.755Z,6.04
2023-04-07T08:30:33.812Z,6.09
2023-04-07T08:32:59.246Z,6.13
2023-04-07T08:35:03.648Z,6.20
2023-04-07T08:37:12.166Z,6.28
2023-04-07T08:39:18.063Z,6.37
2023-04-07T08:41:32.574Z,6.45
2023-04-07T08:43:48.658Z,6.54
2023-04-07T08:45:59.344Z,6.63
2023-04-07T08:48:10.601Z,6.72
2023-04-07T08:50:19.882Z,6.82
2023-04-07T08:55:11.205Z,7.05
2023-04-07T08:57:14.814Z,7.10
2023-04-07T08:59:21.867Z,7.19
2023-04-07T09:01:28.146Z,7.25
2023-04-07T09:03:34.456Z,7.33
2023-04-07T09:05:39.422Z,7.39
2023-04-07T09:07:48.195Z,7.45
2023-04-07T09:09:52.505Z,7.55
2023-04-07T09:11:57.986Z,7.61
2023-04-07T09:14:01.778Z,7.68
2023-04-07T09:16:04.850Z,7.76
2023-04-07T09:18:07.745Z,7.84
2023-04-07T09:20:11.198Z,7.90
2023-04-07T09:22:16.704Z,7.98
2023-04-07T09:24:29.028Z,8.05
2023-04-07T09:26:31.786Z,8.15
2023-04-07T09:28:42.405Z,8.20
2023-04-07T09:30:54.655Z,8.25
2023-04-07T09:32:58.832Z,8.31
2023-04-07T09:35:06.261Z,8.37
2023-04-07T09:37:22.054Z,8.43
2023-04-07T09:39:26.418Z,8.50
2023-04-07T09:41:29.339Z,8.57
2023-04-07T09:43:32.254Z,8.64
2023-04-07T09:45:40.339Z,8.69
2023-04-07T09:47:47.221Z,8.76
2023-04-07T09:49:54.084Z,8.84
2023-04-07T09:52:07.684Z,8.92
2023-04-07T09:54:11.401Z,9.00
2023-04-07T09:56:22.811Z,9.08
2023-04-07T09:58:28.790Z,9.14
2023-04-07T10:00:33.750Z,9.20
2023-04-07T10:02:42.605Z,9.26
2023-04-07T10:04:45.937Z,9.32
2023-04-07T10:06:49.170Z,9.37
2023-04-07T10:08:52.447Z,9.41
2023-04-07T10:10:56.245Z,9.48
2023-04-07T10:12:59.393Z,9.55
2023-04-07T10:15:03.036Z,9.62
2023-04-07T10:17:08.470Z,9.68
2023-04-07T10:19:13.616Z,9.75
2023-04-07T10:21:18.510Z,9.84
2023-04-07T10:23:48.193Z,9.93
2023-04-07T10:25:54.755Z,9.99
2023-04-07T10:28:09.345Z,10.07
2023-04-07T10:30:16.277Z,10.18
2023-04-07T10:32:30.644Z,10.24
2023-04-07T10:34:54.644Z,10.32
2023-04-07T10:37:18.994Z,10.43
2023-04-07T10:39:22.064Z,10.53
2023-04-07T10:41:41.768Z,10.59
2023-04-07T10:43:45.153Z,10.65
2023-04-07T10:45:56.303Z,10.69
2023-04-07T10:48:03.635Z,10.74
2023-04-07T10:50:18.959Z,10.82
2023-04-07T10:52:24.499Z,10.87
2023-04-07T10:54:32.571Z,10.94
2023-04-07T10:57:03.083Z,11.02
2023-04-07T10:59:17.276Z,11.09
2023-04-07T11:01:20.832Z,11.13
2023-04-07T11:03:26.700Z,11.16
2023-04-07T11:05:30.723Z,11.21
2023-04-07T11:07:46.769Z,11.24
2023-04-07T11:09:49.578Z,11.28
2023-04-07T11:11:53.607Z,11.32
2023-04-07T11:13:58.246Z,11.35
2023-04-07T11:16:01.079Z,11.40
2023-04-07T11:18:12.247Z,11.45
2023-04-07T11:20:14.876Z,11.47
2023-04-07T11:22:29.425Z,11.46
2023-04-07T11:24:34.058Z,11.48
2023-04-07T11:26:44.400Z,11.51
2023-04-07T11:28:54.644Z,11.55
2023-04-07T11:30:58.701Z,11.60
2023-04-07T11:33:02.864Z,11.63
2023-04-07T11:35:09.128Z,11.67
2023-04-07T11:37:29.144Z,11.71
2023-04-07T11:39:34.923Z,11.75
2023-04-07T11:41:48.711Z,11.81
2023-04-07T11:44:14.093Z,11.89
2023-04-07T11:46:20.359Z,11.98
2023-04-07T11:48:26.692Z,12.06
2023-04-07T11:50:42.578Z,12.12
2023-04-07T11:52:47.923Z,12.21
2023-04-07T11:54:51.781Z,12.29
2023-04-07T11:56:56.663Z,12.35
2023-04-07T11:59:10.978Z,12.42
2023-04-07T12:01:14.181Z,12.49
2023-04-07T12:03:18.830Z,12.54
2023-04-07T12:05:22.022Z,12.61
2023-04-07T12:07:28.409Z,12.69
2023-04-07T12:09:38.741Z,12.76
2023-04-07T12:11:50.934Z,12.82
2023-04-07T12:13:54.431Z,12.84
2023-04-07T12:15:59.304Z,12.82
2023-04-07T12:18:03.548Z,12.81
2023-04-07T12:20:07.144Z,12.82
2023-04-07T12:22:10.419Z,12.85
2023-04-07T12:24:13.126Z,12.89
2023-04-07T12:26:16.577Z,12.94
2023-04-07T12:28:20.389Z,12.99
2023-04-07T12:30:22.954Z,13.02
2023-04-07T12:32:25.850Z,13.06
2023-04-07T12:34:29.177Z,13.11
2023-04-07T12:36:33.897Z,13.16
2023-04-07T12:38:37.279Z,13.21
2023-04-07T12:40:40.120Z,13.23
2023-04-07T12:42:43.345Z,13.25
2023-04-07T12:44:46.949Z,13.27
2023-04-07T12:46:55.533Z,13.30
2023-04-07T12:48:58.212Z,13.29
2023-04-07T12:51:03.659Z,13.28
2023-04-07T12:53:06.640Z,13.32
2023-04-07T12:55:09.828Z,13.38
2023-04-07T12:57:13.453Z,13.45
2023-04-07T12:59:16.908Z,13.45
2023-04-07T13:01:22.298Z,13.47
2023-04-07T13:03:25.108Z,13.49
2023-04-07T13:05:29.330Z,13.51
2023-04-07T13:07:32.602Z,13.55
2023-04-07T13:09:36.230Z,13.59
2023-04-07T13:11:39.093Z,13.62
2023-04-07T13:13:42.169Z,13.66
2023-04-07T13:15:44.964Z,13.71
2023-04-07T13:17:47.567Z,13.75
2023-04-07T13:19:51.941Z,13.77
2023-04-07T13:21:55.989Z,13.80
2023-04-07T13:23:59.463Z,13.84
2023-04-07T13:26:03.456Z,13.86
2023-04-07T13:28:07.102Z,13.87
2023-04-07T13:30:12.992Z,13.87
2023-04-07T13:32:17.533Z,13.91
2023-04-07T13:34:20.834Z,13.95
2023-04-07T13:36:26.268Z,13.96
2023-04-07T13:38:29.584Z,13.96
2023-04-07T13:40:32.231Z,13.98
2023-04-07T13:42:35.907Z,14.03
2023-04-07T13:44:39.621Z,14.08
2023-04-07T13:46:42.727Z,14.14
2023-04-07T13:48:47.249Z,14.18
2023-04-07T13:50:51.944Z,14.24
2023-04-07T13:52:54.848Z,14.29
2023-04-07T13:54:57.679Z,14.37
2023-04-07T13:57:02.471Z,14.40
2023-04-07T13:59:08.046Z,14.42
2023-04-07T14:01:11.315Z,14.44
2023-04-07T14:03:16.082Z,14.44
2023-04-07T14:05:21.693Z,14.42
2023-04-07T14:07:24.317Z,14.41
2023-04-07T14:09:26.973Z,14.40
2023-04-07T14:11:30.480Z,14.39
2023-04-07T14:13:33.073Z,14.40
2023-04-07T14:15:35.666Z,14.43
2023-04-07T14:17:38.457Z,14.47
2023-04-07T14:19:42.193Z,14.53
2023-04-07T14:21:44.983Z,14.60
2023-04-07T14:23:47.795Z,14.66
2023-04-07T14:25:50.904Z,14.75
2023-04-07T14:27:55.536Z,14.86
2023-04-07T14:29:59.889Z,14.93
2023-04-07T14:32:04.220Z,15.03
2023-04-07T14:34:09.747Z,15.15
2023-04-07T14:36:16.132Z,15.30
2023-04-07T14:38:19.183Z,15.44
2023-04-07T14:40:24.491Z,15.54
2023-04-07T14:42:27.882Z,15.65
2023-04-07T14:44:33.226Z,15.71
2023-04-07T14:46:36.328Z,15.71
2023-04-07T14:48:39.288Z,15.71
2023-04-07T14:50:42.294Z,15.73
2023-04-07T14:52:45.381Z,15.84
2023-04-07T14:54:50.289Z,15.93
2023-04-07T14:56:55.222Z,16.05
2023-04-07T14:58:59.437Z,16.13
2023-04-07T15:01:06.127Z,16.14
2023-04-07T15:03:10.030Z,16.16
2023-04-07T15:05:13.747Z,16.22
2023-04-07T15:07:16.617Z,16.30
2023-04-07T15:09:19.704Z,16.34
2023-04-07T15:11:27.495Z,16.43
2023-04-07T15:13:38.027Z,16.51
2023-04-07T15:15:42.832Z,16.56
2023-04-07T15:17:46.039Z,16.56
2023-04-07T15:19:48.809Z,16.54
2023-04-07T15:21:51.437Z,16.49
2023-04-07T15:23:54.717Z,16.46
2023-04-07T15:25:57.867Z,16.43
2023-04-07T15:28:00.787Z,16.43
2023-04-07T15:30:04.320Z,16.41
2023-04-07T15:32:07.308Z,16.37
2023-04-07T15:34:10.559Z,16.34
2023-04-07T15:36:17.051Z,16.31
2023-04-07T15:38:26.614Z,16.27
2023-04-07T15:40:29.655Z,16.16
2023-04-07T15:42:38.551Z,16.08
2023-04-07T15:44:43.416Z,16.01
2023-04-07T15:46:52.023Z,15.95
2023-04-07T15:48:55.980Z,16.00
2023-04-07T15:51:00.299Z,16.18
2023-04-07T15:53:05.026Z,16.27
2023-04-07T15:55:10.142Z,16.64
2023-04-07T15:57:13.218Z,17.01
2023-04-07T15:59:18.870Z,16.99
2023-04-07T16:01:24.296Z,16.86
2023-04-07T16:03:31.794Z,16.70
2023-04-07T16:05:34.587Z,16.56
2023-04-07T16:07:37.225Z,16.45
2023-04-07T16:09:39.744Z,16.31
2023-04-07T16:11:42.497Z,16.16
2023-04-07T16:13:46.829Z,16.00
2023-04-07T16:15:49.521Z,15.85
2023-04-07T16:17:52.379Z,15.78
2023-04-07T16:20:00.429Z,16.11
2023-04-07T16:22:04.614Z,17.02
2023-04-07T16:24:10.344Z,18.15
2023-04-07T16:26:14.933Z,19.17
2023-04-07T16:28:17.431Z,19.93
2023-04-07T16:30:21.757Z,20.49
2023-04-07T16:32:27.594Z,20.78
2023-04-07T16:34:32.706Z,20.21
2023-04-07T16:36:35.690Z,19.43
2023-04-07T16:38:38.907Z,18.67
2023-04-07T16:41:02.728Z,18.02
2023-04-07T16:43:06.777Z,17.45
2023-04-07T16:45:14.080Z,17.17
2023-04-07T16:47:16.860Z,17.06
2023-04-07T16:49:20.946Z,16.92
2023-04-07T16:51:28.548Z,16.78
2023-04-07T16:53:31.299Z,16.65
2023-04-07T16:55:39.444Z,16.56
2023-04-07T16:57:42.003Z,16.47
2023-04-07T16:59:44.918Z,16.25
2023-04-07T17:01:48.309Z,15.95
2023-04-07T17:03:53.288Z,15.71
2023-04-07T17:05:56.164Z,15.46
2023-04-07T17:07:58.721Z,15.26
2023-04-07T17:10:03.272Z,15.05
2023-04-07T17:12:07.498Z,14.88
2023-04-07T17:14:10.466Z,14.72
2023-04-07T17:16:14.928Z,14.55
2023-04-07T17:18:17.969Z,14.43
2023-04-07T17:20:22.758Z,14.29
2023-04-07T17:22:26.244Z,14.18
2023-04-07T17:24:28.741Z,14.09
2023-04-07T17:26:31.423Z,13.98
2023-04-07T17:28:34.037Z,13.93
2023-04-07T17:30:40.248Z,13.92
2023-04-07T17:32:43.813Z,13.91
2023-04-07T17:34:48.033Z,13.91
2023-04-07T17:36:51.453Z,13.91
2023-04-07T17:38:59.713Z,13.90
2023-04-07T17:41:02.857Z,13.85
2023-04-07T17:43:06.074Z,13.80
2023-04-07T17:45:09.580Z,13.76
2023-04-07T17:47:14.184Z,13.71
2023-04-07T17:49:17.573Z,13.65
2023-04-07T17:51:20.949Z,13.57
2023-04-07T17:53:31.230Z,13.52
2023-04-07T17:55:38.603Z,13.47
2023-04-07T17:57:43.795Z,13.43
2023-04-07T17:59:56.633Z,13.36
2023-04-07T18:02:08.778Z,13.30
2023-04-07T18:04:11.914Z,13.25
2023-04-07T18:06:18.187Z,13.15
2023-04-07T18:08:21.041Z,13.10
2023-04-07T18:10:24.764Z,13.06
2023-04-07T18:12:27.780Z,13.02
2023-04-07T18:14:32.668Z,12.99
2023-04-07T18:16:36.593Z,12.95
2023-04-07T18:18:39.295Z,12.90
2023-04-07T18:20:42.225Z,12.86
2023-04-07T18:22:46.356Z,12.84
2023-04-07T18:24:51.654Z,12.80
2023-04-07T18:26:54.906Z,12.76
2023-04-07T18:28:57.592Z,12.71
2023-04-07T18:31:07.816Z,12.65
2023-04-07T18:33:13.223Z,12.56
2023-04-07T18:35:18.451Z,12.44
2023-04-07T18:37:22.146Z,12.33
2023-04-07T18:39:28.131Z,12.27
2023-04-07T18:41:31.545Z,12.19
2023-04-07T18:43:34.405Z,12.11
2023-04-07T18:45:37.291Z,12.05
2023-04-07T18:47:47.761Z,11.98
2023-04-07T18:49:53.674Z,11.90
2023-04-07T18:51:56.463Z,11.86
2023-04-07T18:53:59.143Z,11.82
2023-04-07T18:56:02.615Z,11.80
2023-04-07T18:58:23.224Z,11.80
2023-04-07T19:00:25.905Z,11.80
2023-04-07T19:02:28.872Z,11.74
2023-04-07T19:04:32.045Z,11.68
2023-04-07T19:06:37.225Z,11.63
2023-04-07T19:08:42.617Z,11.55
2023-04-07T19:10:54.368Z,11.48
2023-04-07T19:12:57.283Z,11.42
2023-04-07T19:15:01.844Z,11.37
2023-04-07T19:17:07.153Z,11.32
2023-04-07T19:19:15.044Z,11.30
2023-04-07T19:21:28.080Z,11.28
2023-04-07T19:23:32.509Z,11.22
2023-04-07T19:25:35.677Z,11.17
2023-04-07T19:27:39.551Z,11.13
2023-04-07T19:29:42.642Z,11.10
2023-04-07T19:31:45.363Z,11.07
2023-04-07T19:33:48.962Z,11.03
2023-04-07T19:35:51.748Z,10.98
2023-04-07T19:37:58.455Z,10.94
2023-04-07T19:40:08.963Z,10.87
2023-04-07T19:42:11.878Z,10.85
2023-04-07T19:44:19.002Z,10.81
2023-04-07T19:46:22.151Z,10.74
2023-04-07T19:48:25.386Z,10.69
2023-04-07T19:50:32.262Z,10.65
2023-04-07T19:52:43.576Z,10.61
2023-04-07T19:54:48.251Z,10.56
2023-04-07T19:56:53.056Z,10.52
2023-04-07T19:59:05.702Z,10.47
2023-04-07T20:01:16.947Z,10.42
2023-04-07T20:03:22.808Z,10.37
2023-04-07T20:05:25.592Z,10.32
2023-04-07T20:07:35.609Z,10.29
2023-04-07T20:09:42.282Z,10.26
2023-04-07T20:11:48.166Z,10.24
2023-04-07T20:13:50.857Z,10.23
2023-04-07T20:15:55.066Z,10.21
2023-04-07T20:17:58.081Z,10.19
2023-04-07T20:20:06.175Z,10.15
2023-04-07T20:22:11.306Z,10.11
2023-04-07T20:24:14.368Z,10.07
2023-04-07T20:26:22.100Z,10.04
2023-04-07T20:28:29.037Z,10.01
2023-04-07T20:30:35.192Z,9.95
2023-04-07T20:32:43.696Z,9.89
2023-04-07T20:34:48.334Z,9.86
2023-04-07T20:36:54.962Z,9.82
2023-04-07T20:39:02.281Z,9.78
2023-04-07T20:41:12.506Z,9.70
2023-04-07T20:43:18.418Z,9.62
2023-04-07T20:45:23.026Z,9.52
2023-04-07T20:47:28.421Z,9.45
2023-04-07T20:49:35.107Z,9.39
2023-04-07T20:51:40.069Z,9.32
2023-04-07T20:53:47.034Z,9.26
2023-04-07T20:55:53.079Z,9.22
2023-04-07T20:58:03.018Z,9.21
2023-04-07T21:00:09.460Z,9.17
2023-04-07T21:02:12.584Z,9.16
2023-04-07T21:04:16.285Z,9.10
2023-04-07T21:06:21.553Z,9.04
2023-04-07T21:08:27.356Z,8.95
2023-04-07T21:10:31.955Z,8.91
2023-04-07T21:12:36.888Z,8.86
2023-04-07T21:14:45.961Z,8.84
2023-04-07T21:16:50.492Z,8.83
2023-04-07T21:18:54.133Z,8.85
2023-04-07T21:21:02.305Z,8.83
2023-04-07T21:23:12.204Z,8.78
2023-04-07T21:25:16.512Z,8.74
2023-04-07T21:27:22.025Z,8.70
2023-04-07T21:29:24.614Z,8.66
2023-04-07T21:31:29.036Z,8.65
2023-04-07T21:33:36.389Z,8.66
2023-04-07T21:35:39.520Z,8.66
2023-04-07T21:37:42.084Z,8.62
2023-04-07T21:39:58.705Z,8.58
2023-04-07T21:42:02.548Z,8.54
2023-04-07T21:44:10.479Z,8.49
2023-04-07T21:46:14.851Z,8.44
2023-04-07T21:48:23.925Z,8.39
2023-04-07T21:50:28.234Z,8.37
2023-04-07T21:52:31.764Z,8.36
2023-04-07T21:54:36.735Z,8.35
2023-04-07T21:56:41.618Z,8.34
2023-04-07T21:58:47.098Z,8.34
2023-04-07T22:00:50.703Z,8.33
2023-04-07T22:02:57.301Z,8.32
2023-04-07T22:05:04.056Z,8.32
2023-04-07T22:07:06.628Z,8.30
2023-04-07T22:09:11.190Z,8.30
2023-04-07T22:11:19.312Z,8.31
2023-04-07T22:13:24.580Z,8.32
2023-04-07T22:15:32.603Z,8.35
2023-04-07T22:17:37.078Z,8.38
2023-04-07T22:19:45.114Z,8.41
2023-04-07T22:21:51.562Z,8.41
2023-04-07T22:24:04.686Z,8.40
2023-04-07T22:26:11.303Z,8.39
2023-04-07T22:28:22.973Z,8.38
2023-04-07T22:30:28.824Z,8.37
2023-04-07T22:32:33.521Z,8.35
2023-04-07T22:34:38.674Z,8.34
2023-04-07T22:36:46.063Z,8.33
2023-04-07T22:38:49.792Z,8.33
2023-04-07T22:40:56.640Z,8.33
2023-04-07T22:43:00.444Z,8.32
2023-04-07T22:45:05.272Z,8.29
2023-04-07T22:47:12.243Z,8.27
2023-04-07T22:49:25.921Z,8.27
2023-04-07T22:51:35.382Z,8.28
2023-04-07T22:53:41.948Z,8.30
2023-04-07T22:55:46.823Z,8.30
2023-04-07T22:57:51.768Z,8.31
2023-04-07T22:59:58.850Z,8.29
2023-04-07T23:02:02.025Z,8.27
2023-04-07T23:04:08.576Z,8.27
2023-04-07T23:06:15.589Z,8.27
2023-04-07T23:08:18.415Z,8.26
2023-04-07T23:10:21.231Z,8.26
2023-04-07T23:12:26.529Z,8.26
2023-04-07T23:14:29.432Z,8.25
2023-04-07T23:16:38.784Z,8.24
2023-04-07T23:18:49.438Z,8.23
2023-04-07T23:21:10.335Z,8.22
2023-04-07T23:23:13.432Z,8.21
2023-04-07T23:25:17.238Z,8.17
2023-04-07T23:27:19.852Z,8.13
2023-04-07T23:29:24.365Z,8.09
2023-04-07T23:31:29.229Z,8.05
2023-04-07T23:33:33.870Z,8.00
2023-04-07T23:35:38.612Z,7.97
2023-04-07T23:37:46.233Z,7.93
2023-04-07T23:39:53.068Z,7.93
2023-04-07T23:41:58.586Z,7.92
2023-04-07T23:44:04.777Z,7.92
2023-04-07T23:46:08.533Z,7.90
2023-04-07T23:48:21.677Z,7.89
2023-04-07T23:50:27.920Z,7.90
2023-04-07T23:52:31.605Z,7.90
2023-04-07T23:54:36.398Z,7.90
2023-04-07T23:56:40.983Z,7.91
2023-04-07T23:58:43.685Z,7.91
